Terminal Aerodrome Forecast
Issued by NWS Upton, NY

Home | Current Version | Previous Version | Text Only | Print | Product List | Glossary On
Versions: 1 2 3 4 5 6 7 8 9 10 11 12 13 14 15 16 17 18 19 20 21 22 23 24 25 26 27 28 29 30 31 32 33 34
409
FTUS41 KOKX 291331 AAA
TAFEWR
TAF AMD
KEWR 291331Z 2914/3018 02008KT 3SM RA BKN010 OVC025
      TEMPO 2914/2915 6SM -SHRA BKN050
     FM291700 02007KT P6SM FEW050 SCT120
     FM292200 VRB06KT P6SM SCT050
     FM300000 17004KT P6SM SCT250
     FM300500 VRB03KT P6SM SCT250
     FM301000 02005KT P6SM SCT200
     FM301600 10005KT P6SM VCSH BKN050=

USA.gov is the U.S. government's official web portal to all federal, state and local government web resources and services.